Time;durP1;ratioP1;P1;durP2;ratioP2;P2;SDS_P1;SDS_P2;PMS_P1;PMS_P2;Temp;Humidity;BMP_temperature;BMP_pressure;BME280_temperature;BME280_humidity;BME280_pressure;Samples;Min_cycle;Max_cycle;Signal;HPM_P1;HPM_P2
2022/08/09 00:01:05;;;;;;;12.35;5.42;;;;;;;15.11;99.03;98791.83;1765766;80;21552;-83
2022/08/09 00:03:31;;;;;;;10.85;4.70;;;;;;;15.11;99.63;98791.83;1825499;78;20867;-86
2022/08/09 00:05:57;;;;;;;10.15;5.40;;;;;;;15.14;98.01;98791.83;1832002;78;20989;-86
2022/08/09 00:08:23;;;;;;;8.75;5.40;;;;;;;15.15;97.51;98792.08;1834103;78;20993;-86
2022/08/09 00:10:49;;;;;;;8.70;4.50;;;;;;;15.14;98.42;98792.64;1831781;77;20852;-87
2022/08/09 00:13:15;;;;;;;8.30;4.37;;;;;;;15.13;98.32;98788.28;1830267;77;21239;-83
2022/08/09 00:15:41;;;;;;;6.67;4.75;;;;;;;15.11;99.19;98792.39;1830167;78;20994;-86
2022/08/09 00:18:07;;;;;;;7.75;4.92;;;;;;;15.09;99.15;98786.41;1830084;78;20892;-82
2022/08/09 00:20:33;;;;;;;6.95;4.67;;;;;;;15.07;99.46;98790.80;1831303;78;20919;-86
2022/08/09 00:22:59;;;;;;;8.50;4.40;;;;;;;15.04;99.88;98783.20;1830548;78;21026;-86
2022/08/09 00:25:25;;;;;;;6.35;5.20;;;;;;;15.00;98.03;98787.60;1827028;77;21413;-86
2022/08/09 00:27:51;;;;;;;8.28;4.90;;;;;;;14.95;98.70;98785.76;1823103;78;20931;-86
2022/08/09 00:30:17;;;;;;;10.40;5.17;;;;;;;14.91;97.84;98787.42;1803967;78;20881;-82
2022/08/09 00:32:43;;;;;;;8.28;5.05;;;;;;;14.86;100.00;98780.64;1759603;81;20916;-86
2022/08/09 00:35:09;;;;;;;9.50;4.92;;;;;;;14.85;98.74;98783.11;1828079;78;21404;-86
2022/08/09 00:37:35;;;;;;;8.98;5.08;;;;;;;14.83;99.51;98788.61;1835297;78;21918;-83
2022/08/09 00:40:01;;;;;;;8.45;5.58;;;;;;;14.78;99.26;98784.00;1834095;77;21592;-86
2022/08/09 00:42:27;;;;;;;8.80;4.17;;;;;;;14.76;98.00;98775.30;1830337;78;21613;-87
2022/08/09 00:44:54;;;;;;;9.48;5.08;;;;;;;14.66;98.64;98781.67;1830825;78;21063;-86
2022/08/09 00:47:21;;;;;;;11.15;4.70;;;;;;;14.61;99.09;98785.83;1830139;77;21041;-83
2022/08/09 00:49:47;;;;;;;7.92;4.90;;;;;;;14.56;100.00;98784.50;1831950;77;21117;-83
2022/08/09 00:52:13;;;;;;;10.48;4.60;;;;;;;14.52;100.00;98794.34;1830560;77;20974;-82
2022/08/09 00:54:39;;;;;;;7.50;5.08;;;;;;;14.49;100.00;98794.92;1831838;78;20868;-83
2022/08/09 00:57:05;;;;;;;6.50;4.53;;;;;;;14.43;100.00;98793.85;1835755;78;20951;-83
2022/08/09 00:59:31;;;;;;;7.67;4.28;;;;;;;14.33;100.00;98794.20;1834108;77;21018;-86
2022/08/09 01:01:59;;;;;;;7.03;4.75;;;;;;;14.30;99.69;98793.97;1823577;78;21191;-83
2022/08/09 01:04:34;;;;;;;10.53;4.03;;;;;;;14.28;98.81;98790.73;1821712;78;21537;-82
2022/08/09 01:07:15;;;;;;;10.43;4.30;;;;;;;14.22;98.51;98792.67;1754021;81;21760;-82
2022/08/09 01:10:04;;;;;;;6.50;4.55;;;;;;;14.16;99.97;98795.16;1817233;78;21090;-83
2022/08/09 01:12:48;;;;;;;7.42;5.03;;;;;;;14.12;100.00;98799.56;1783947;79;27388;-83
2022/08/09 01:15:23;;;;;;;5.90;4.42;;;;;;;14.08;100.00;98797.13;1828183;78;21272;-88
2022/08/09 01:18:02;;;;;;;10.78;4.75;;;;;;;14.05;100.00;98791.70;1806617;78;21487;-82
2022/08/09 01:20:56;;;;;;;7.00;4.90;;;;;;;14.01;100.00;98797.98;1830320;77;20991;-83
2022/08/09 01:23:57;;;;;;;11.75;5.10;;;;;;;13.94;100.00;98803.78;1830769;78;21010;-86
2022/08/09 01:26:58;;;;;;;7.58;5.10;;;;;;;13.92;100.00;98801.05;1819107;78;21022;-86
2022/08/09 01:29:31;;;;;;;8.58;5.10;;;;;;;13.87;100.00;98811.45;1733384;81;21072;-86
2022/08/09 01:32:00;;;;;;;9.40;5.65;;;;;;;13.83;100.00;98804.92;1728029;82;21033;-83
2022/08/09 01:34:26;;;;;;;;;;;;;;;13.80;100.00;98812.30;1758127;81;21057;-83
2022/08/09 01:36:52;;;;;;;8.43;4.35;;;;;;;13.79;100.00;98807.95;1715270;81;20198;-86
2022/08/09 01:39:18;;;;;;;12.80;4.40;;;;;;;13.77;100.00;98806.88;1761454;81;21026;-83
2022/08/09 01:41:44;;;;;;;9.73;5.12;;;;;;;13.75;100.00;98806.88;1771368;81;21309;-86
2022/08/09 01:44:10;;;;;;;11.15;5.50;;;;;;;13.71;100.00;98805.27;1771996;81;20997;-83
2022/08/09 01:46:42;;;;;;;6.12;4.53;;;;;;;13.72;100.00;98810.16;1770991;81;20879;-83
2022/08/09 01:49:16;;;;;;;7.72;4.70;;;;;;;13.67;100.00;98811.02;1771253;80;21055;-83
2022/08/09 01:51:54;;;;;;;8.00;4.62;;;;;;;13.66;100.00;98815.36;1771791;80;21073;-86
2022/08/09 01:54:28;;;;;;;8.13;4.60;;;;;;;13.64;100.00;98814.29;1739421;81;21907;-83
2022/08/09 01:56:55;;;;;;;8.05;4.22;;;;;;;13.61;100.00;98812.14;1771127;80;22138;-86
2022/08/09 01:59:22;;;;;;;8.05;4.15;;;;;;;13.56;100.00;98816.23;1767152;80;20952;-86
2022/08/09 02:01:51;;;;;;;9.38;5.12;;;;;;;13.53;100.00;98819.53;1770193;80;21037;-83
2022/08/09 02:04:18;;;;;;;7.20;4.45;;;;;;;13.51;100.00;98816.28;1761715;80;21365;-83
2022/08/09 02:09:28;;;;;;;7.95;5.17;;;;;;;13.53;100.00;98822.25;1777940;80;21047;-82
2022/08/09 02:11:54;;;;;;;11.53;5.67;;;;;;;13.55;100.00;98822.78;1829867;78;21639;-83
2022/08/09 02:14:21;;;;;;;5.80;4.30;;;;;;;13.58;100.00;98823.56;1827182;77;22032;-86
2022/08/09 02:16:47;;;;;;;6.35;4.67;;;;;;;13.62;100.00;98815.12;1834598;78;22157;-82
2022/08/09 02:19:13;;;;;;;4.87;3.65;;;;;;;13.65;100.00;98820.00;1829652;78;21851;-87
2022/08/09 02:21:40;;;;;;;6.15;3.90;;;;;;;13.67;100.00;98818.34;1833089;78;21529;-83
2022/08/09 02:24:10;;;;;;;8.80;4.78;;;;;;;13.69;100.00;98815.64;1763488;81;21160;-86
2022/08/09 02:26:36;;;;;;;6.35;4.12;;;;;;;13.67;100.00;98818.34;1760392;81;21069;-82
2022/08/09 02:29:16;;;;;;;5.80;4.00;;;;;;;13.62;100.00;98818.39;1749603;81;21054;-86
2022/08/09 02:31:42;;;;;;;5.53;3.70;;;;;;;13.62;100.00;98821.93;1790831;80;21377;-86
2022/08/09 02:34:19;;;;;;;9.83;4.58;;;;;;;13.56;100.00;98818.95;1828754;78;21062;-86
2022/08/09 02:36:48;;;;;;;6.22;3.50;;;;;;;13.50;100.00;98816.83;1834608;77;20951;-87
2022/08/09 02:39:21;;;;;;;7.08;4.33;;;;;;;13.52;100.00;98819.27;1824889;78;21109;-86
2022/08/09 02:41:52;;;;;;;5.08;3.80;;;;;;;13.55;100.00;98820.05;1835637;78;21073;-86
2022/08/09 02:44:21;;;;;;;7.67;3.62;;;;;;;13.58;100.00;98818.67;1833879;77;21097;-83
2022/08/09 02:46:50;;;;;;;7.53;4.17;;;;;;;13.57;100.00;98816.50;1830672;78;21006;-83
2022/08/09 02:49:16;;;;;;;;;;;;;;;13.57;100.00;98813.77;1834574;78;21030;-83
2022/08/09 02:51:42;;;;;;;5.30;3.87;;;;;;;13.57;100.00;98813.77;1831072;78;20161;-83
2022/08/09 02:54:11;;;;;;;6.28;3.72;;;;;;;13.57;100.00;98818.41;1833060;78;20868;-86
2022/08/09 02:56:40;;;;;;;9.83;4.25;;;;;;;13.57;100.00;98822.49;1830224;78;21178;-86
2022/08/09 02:59:06;;;;;;;5.83;4.55;;;;;;;13.57;100.00;98820.58;1829912;78;20988;-88
2022/08/09 03:01:32;;;;;;;8.58;3.90;;;;;;;13.60;100.00;98821.95;1836418;78;21090;-86
2022/08/09 03:03:58;;;;;;;9.20;4.25;;;;;;;13.58;100.00;98822.20;1804175;78;21034;-83
2022/08/09 03:06:24;;;;;;;6.85;3.95;;;;;;;13.59;100.00;98828.47;1824705;78;21037;-82
2022/08/09 03:08:50;;;;;;;7.03;3.83;;;;;;;13.58;100.00;98824.12;1825714;78;21135;-86
2022/08/09 03:11:17;;;;;;;6.30;4.15;;;;;;;13.61;100.00;98829.02;1834465;78;20840;-87
2022/08/09 03:13:44;;;;;;;11.88;4.75;;;;;;;13.62;100.00;98829.29;1802458;78;21434;-82
2022/08/09 03:16:10;;;;;;;13.00;4.35;;;;;;;13.61;100.00;98830.38;1835426;78;21054;-86
2022/08/09 03:18:36;;;;;;;10.15;4.53;;;;;;;13.61;100.00;98830.38;1834436;78;20884;-87
2022/08/09 03:21:02;;;;;;;11.43;4.40;;;;;;;13.61;100.00;98832.56;1831661;78;21293;-83
2022/08/09 03:23:29;;;;;;;7.65;3.70;;;;;;;13.62;100.00;98827.37;1829279;77;20979;-86
2022/08/09 03:25:55;;;;;;;5.90;3.98;;;;;;;13.66;100.00;98827.62;1758641;81;21034;-83
2022/08/09 03:28:21;;;;;;;10.40;4.40;;;;;;;13.66;100.00;98827.07;1766416;81;21475;-83
2022/08/09 03:30:47;;;;;;;7.12;3.98;;;;;;;13.69;100.00;98829.80;1771951;81;20978;-86
2022/08/09 03:33:13;;;;;;;7.87;4.08;;;;;;;13.66;100.00;98824.34;1772479;81;21560;-86
2022/08/09 03:35:40;;;;;;;7.00;3.95;;;;;;;13.68;100.00;98825.45;1769181;81;20885;-83
2022/08/09 03:38:06;;;;;;;7.45;4.50;;;;;;;13.69;100.00;98825.17;1767022;80;21377;-87
2022/08/09 03:40:32;;;;;;;5.60;4.35;;;;;;;13.69;100.00;98828.44;1728075;82;21021;-86
2022/08/09 03:42:58;;;;;;;6.20;3.72;;;;;;;13.66;100.00;98831.16;1735915;82;20898;-87
2022/08/09 03:45:24;;;;;;;8.10;4.10;;;;;;;13.68;100.00;98833.08;1765936;81;21009;-86
2022/08/09 03:47:50;;;;;;;7.53;4.47;;;;;;;13.72;100.00;98827.32;1762803;80;21854;-83
2022/08/09 03:50:16;;;;;;;7.92;4.67;;;;;;;13.77;100.00;98827.86;1771402;80;20937;-86
2022/08/09 03:52:42;;;;;;;8.55;4.08;;;;;;;13.79;100.00;98825.11;1773816;80;21536;-86
2022/08/09 03:55:09;;;;;;;10.43;4.03;;;;;;;13.82;100.00;98827.26;1758425;80;21031;-86
2022/08/09 03:57:36;;;;;;;6.25;4.12;;;;;;;13.85;100.00;98828.63;1759133;81;21304;-85
2022/08/09 04:00:02;;;;;;;6.50;4.53;;;;;;;13.87;100.00;98826.98;1790841;79;21436;-82
2022/08/09 04:02:28;;;;;;;8.20;3.98;;;;;;;13.90;100.00;98826.41;1791055;79;20957;-86
2022/08/09 04:04:56;;;;;;;11.08;4.90;;;;;;;13.90;100.00;98825.05;1769259;80;21094;-82
2022/08/09 04:07:22;;;;;;;5.62;3.62;;;;;;;13.88;100.00;98823.97;1768182;80;22192;-86
2022/08/09 04:09:48;;;;;;;5.70;4.10;;;;;;;13.91;100.00;98832.12;1762425;79;22213;-86
2022/08/09 04:12:19;;;;;;;7.15;3.90;;;;;;;13.91;100.00;98829.39;1796720;79;20887;-83
2022/08/09 04:14:45;;;;;;;5.03;3.85;;;;;;;13.86;100.00;98827.53;1803615;78;21447;-83
2022/08/09 04:17:11;;;;;;;5.28;3.65;;;;;;;13.85;100.00;98825.91;1823225;78;20926;-82
2022/08/09 04:19:37;;;;;;;6.00;4.08;;;;;;;13.87;100.00;98828.34;1755301;81;21485;-86
2022/08/09 04:22:03;;;;;;;7.78;3.87;;;;;;;13.91;100.00;98834.84;1808273;78;21567;-86
2022/08/09 04:24:30;;;;;;;10.85;3.98;;;;;;;13.96;100.00;98838.91;1816355;78;20895;-85
2022/08/09 04:26:56;;;;;;;9.88;4.53;;;;;;;13.99;100.00;98840.52;1829858;78;21011;-83
2022/08/09 04:29:22;;;;;;;5.00;3.98;;;;;;;13.99;100.00;98840.52;1831820;78;21051;-82
2022/08/09 04:31:50;;;;;;;6.67;4.90;;;;;;;14.01;100.00;98847.03;1830818;77;21007;-83
2022/08/09 04:34:16;;;;;;;6.55;3.85;;;;;;;14.06;100.00;98851.92;1832536;78;22206;-83
2022/08/09 04:36:42;;;;;;;5.75;3.62;;;;;;;14.13;100.00;98846.70;1835680;78;20864;-86
2022/08/09 04:39:08;;;;;;;5.90;3.90;;;;;;;14.15;100.00;98858.95;1824939;78;21028;-82
2022/08/09 04:41:34;;;;;;;15.00;4.30;;;;;;;14.20;100.00;98854.02;1830138;77;20931;-82
2022/08/09 04:44:01;;;;;;;5.40;3.65;;;;;;;14.26;100.00;98857.77;1831057;78;20970;-83
2022/08/09 04:46:27;;;;;;;8.83;4.20;;;;;;;14.33;100.00;98854.19;1820053;78;21396;-87
2022/08/09 04:48:53;;;;;;;9.88;4.40;;;;;;;14.33;100.00;98848.73;1833235;78;21600;-86
2022/08/09 04:51:19;;;;;;;5.33;3.75;;;;;;;14.35;100.00;98844.35;1830332;78;20872;-86
2022/08/09 04:53:45;;;;;;;11.05;4.55;;;;;;;14.38;100.00;98846.53;1830370;78;20872;-86
2022/08/09 04:56:11;;;;;;;6.22;3.72;;;;;;;14.39;100.00;98848.16;1820929;77;20867;-86
2022/08/09 04:58:37;;;;;;;6.92;4.30;;;;;;;14.39;100.00;98854.42;1811177;78;21632;-86
2022/08/09 05:01:03;;;;;;;7.60;4.58;;;;;;;14.43;100.00;98853.29;1819354;78;20875;-81
2022/08/09 05:03:29;;;;;;;9.20;4.30;;;;;;;14.50;100.00;98849.72;1758952;81;21043;-83
2022/08/09 05:05:55;;;;;;;8.88;4.22;;;;;;;14.55;100.00;98854.34;1760667;80;20954;-82
2022/08/09 05:08:21;;;;;;;6.45;4.15;;;;;;;14.63;100.00;98855.09;1756611;81;21080;-86
2022/08/09 05:10:47;;;;;;;7.15;3.77;;;;;;;14.66;100.00;98853.14;1767342;80;21304;-82
2022/08/09 05:13:13;;;;;;;8.60;4.30;;;;;;;14.72;100.00;98858.83;1760235;81;20837;-82
2022/08/09 05:15:39;;;;;;;8.20;3.90;;;;;;;14.77;100.00;98855.22;1768169;81;20862;-82
2022/08/09 05:18:05;;;;;;;9.13;4.30;;;;;;;14.86;100.00;98857.04;1755739;80;20875;-82
2022/08/09 05:20:31;;;;;;;8.83;4.08;;;;;;;14.91;100.00;98861.65;1769720;79;20910;-83
2022/08/09 05:22:58;;;;;;;6.90;3.67;;;;;;;14.96;100.00;98865.70;1849748;76;21149;-86
2022/08/09 05:25:25;;;;;;;7.72;4.10;;;;;;;15.03;100.00;98870.25;1829025;77;21600;-86
2022/08/09 05:27:51;;;;;;;9.88;3.92;;;;;;;15.08;100.00;98864.75;1829601;77;20999;-87
2022/08/09 05:30:17;;;;;;;5.12;3.67;;;;;;;15.15;100.00;98863.87;1825115;77;20879;-87
2022/08/09 05:32:44;;;;;;;5.58;3.50;;;;;;;15.23;100.00;98861.06;1829789;78;20923;-87
2022/08/09 05:35:10;;;;;;;9.40;4.45;;;;;;;15.34;100.00;98869.39;1826985;78;21159;-87
2022/08/09 05:37:36;;;;;;;8.95;3.80;;;;;;;15.44;100.00;98858.91;1828369;76;20934;-83
2022/08/09 05:40:05;;;;;;;6.60;5.22;;;;;;;15.48;100.00;98860.77;1803884;78;35595;-83
2022/08/09 05:42:31;;;;;;;7.35;3.75;;;;;;;15.42;99.96;98859.20;1835624;78;22258;-87
2022/08/09 05:44:57;;;;;;;5.97;3.67;;;;;;;15.39;99.97;98856.25;1828716;78;20956;-87
2022/08/09 05:47:24;;;;;;;31.60;4.47;;;;;;;15.38;99.84;98859.53;1821844;78;21133;-83
2022/08/09 05:49:54;;;;;;;7.85;3.55;;;;;;;15.33;99.91;98858.77;1747305;81;21094;-83
2022/08/09 05:52:21;;;;;;;5.25;3.60;;;;;;;15.34;99.94;98863.13;1768074;81;21041;-83
2022/08/09 05:54:46;;;;;;;8.25;4.10;;;;;;;15.36;99.90;98865.81;1763574;81;21437;-87
2022/08/09 05:57:12;;;;;;;5.55;4.35;;;;;;;15.39;100.00;98866.62;1824709;78;20974;-83
2022/08/09 05:59:38;;;;;;;7.87;4.72;;;;;;;15.61;100.00;98857.91;1828129;78;21126;-87
2022/08/09 06:02:04;;;;;;;11.10;7.90;;;;;;;15.79;100.00;98867.24;1831642;77;21512;-87
2022/08/09 06:04:30;;;;;;;11.15;5.25;;;;;;;15.82;99.99;98867.23;1826785;78;20958;-87
2022/08/09 06:06:56;;;;;;;6.83;4.40;;;;;;;15.87;99.54;98865.78;1815469;77;21006;-83
2022/08/09 06:09:22;;;;;;;10.08;4.87;;;;;;;15.87;99.16;98861.67;1816770;77;20888;-83
2022/08/09 06:11:48;;;;;;;7.83;4.33;;;;;;;15.88;98.95;98871.50;1809548;77;21290;-83
2022/08/09 06:14:16;;;;;;;7.60;5.08;;;;;;;15.89;98.67;98876.66;1825825;76;20835;-87
2022/08/09 06:16:42;;;;;;;12.35;6.87;;;;;;;15.92;98.44;98867.09;1812395;77;21022;-84
2022/08/09 06:19:08;;;;;;;7.97;4.28;;;;;;;15.93;98.22;98876.35;1822569;78;20982;-83
2022/08/09 06:21:34;;;;;;;7.83;4.33;;;;;;;15.96;97.91;98870.29;1819391;78;21439;-87
2022/08/09 06:24:00;;;;;;;9.68;3.83;;;;;;;15.97;98.13;98867.81;1816711;77;21142;-87
2022/08/09 06:26:26;;;;;;;7.58;4.25;;;;;;;16.03;98.39;98872.11;1816809;78;20848;-83
2022/08/09 06:28:53;;;;;;;7.97;4.37;;;;;;;16.10;99.23;98870.38;1829563;78;21075;-83
2022/08/09 06:31:19;;;;;;;5.95;4.92;;;;;;;16.24;99.28;98863.64;1818405;76;21006;-87
2022/08/09 06:33:45;;;;;;;11.28;4.53;;;;;;;16.42;98.94;98874.30;1818299;76;20994;-83
2022/08/09 06:36:11;;;;;;;8.03;4.03;;;;;;;16.71;98.82;98868.10;1822561;77;20988;-83
2022/08/09 06:38:37;;;;;;;5.85;4.42;;;;;;;17.05;98.49;98874.63;1819785;77;21107;-83
2022/08/09 06:41:04;;;;;;;7.08;4.40;;;;;;;17.43;98.28;98867.08;1814672;78;21501;-83
2022/08/09 06:43:30;;;;;;;9.98;4.42;;;;;;;17.77;96.09;98874.08;1816669;76;21014;-84
2022/08/09 06:45:56;;;;;;;6.78;3.70;;;;;;;18.02;90.32;98869.42;1817432;76;21418;-81
2022/08/09 06:48:23;;;;;;;8.35;3.72;;;;;;;18.30;93.79;98870.75;1795901;78;21758;-81
2022/08/09 06:50:49;;;;;;;5.15;2.98;;;;;;;18.54;92.56;98869.91;1797004;78;21049;-85
2022/08/09 06:53:15;;;;;;;8.20;3.08;;;;;;;18.71;79.45;98879.39;1820675;78;21650;-85
2022/08/09 06:55:41;;;;;;;7.37;2.83;;;;;;;18.98;84.99;98872.41;1817418;78;20863;-80
2022/08/09 06:58:07;;;;;;;6.20;2.62;;;;;;;19.36;77.09;98876.87;1823347;77;20880;-81
2022/08/09 07:00:34;;;;;;;7.05;2.70;;;;;;;19.71;73.56;98874.28;1810367;77;21789;-81
2022/08/09 07:03:00;;;;;;;4.58;2.87;;;;;;;19.96;70.91;98874.10;1816454;78;21021;-85
2022/08/09 07:05:26;;;;;;;6.22;2.40;;;;;;;20.19;75.62;98874.80;1818409;76;22245;-81
2022/08/09 07:07:53;;;;;;;6.22;2.83;;;;;;;20.50;77.47;98883.72;1825666;76;21117;-81
2022/08/09 07:10:21;;;;;;;7.17;2.42;;;;;;;20.81;75.45;98880.80;1833503;76;20974;-81
2022/08/09 07:12:48;;;;;;;4.00;2.17;;;;;;;21.00;70.59;98881.00;1815462;76;21251;-81
2022/08/09 07:15:14;;;;;;;3.47;2.00;;;;;;;20.87;72.36;98882.83;1821858;77;20930;-86
2022/08/09 07:17:39;;;;;;;5.12;2.35;;;;;;;20.91;71.32;98888.48;1822628;76;20839;-82
2022/08/09 07:20:06;;;;;;;7.42;2.22;;;;;;;21.29;71.14;98887.22;1824292;76;21592;-82
2022/08/09 07:22:32;;;;;;;8.93;3.50;;;;;;;21.96;70.53;98887.78;1808418;76;21050;-82
2022/08/09 07:24:58;;;;;;;7.37;3.33;;;;;;;22.77;69.81;98885.18;1771199;78;21136;-81
2022/08/09 07:27:26;;;;;;;6.62;2.67;;;;;;;23.43;67.64;98880.22;1771676;80;20916;-86
2022/08/09 07:29:54;;;;;;;3.80;2.03;;;;;;;23.84;65.09;98876.44;1812404;77;21077;-86
2022/08/09 07:32:20;;;;;;;6.87;1.80;;;;;;;24.41;64.16;98881.80;1819806;77;21552;-82
2022/08/09 07:34:45;;;;;;;6.83;3.58;;;;;;;24.76;60.01;98882.61;1810280;78;21652;-86
2022/08/09 07:37:12;;;;;;;7.33;3.47;;;;;;;25.02;59.15;98880.75;1811040;78;22315;-86
2022/08/09 07:39:38;;;;;;;5.30;2.02;;;;;;;25.06;53.59;98880.31;1809755;76;20939;-88
2022/08/09 07:42:04;;;;;;;2.50;2.00;;;;;;;25.33;53.14;98876.46;1810187;76;21499;-88
2022/08/09 07:44:30;;;;;;;12.05;1.67;;;;;;;25.76;53.86;98879.75;1818962;76;21553;-83
2022/08/09 07:46:56;;;;;;;6.75;1.77;;;;;;;25.89;47.38;98886.80;1816828;76;20893;-85
2022/08/09 07:49:22;;;;;;;4.40;1.55;;;;;;;25.98;47.96;98886.05;1738024;81;21145;-88
2022/08/09 07:51:50;;;;;;;3.72;1.30;;;;;;;26.32;49.96;98884.44;1777041;78;20893;-90
2022/08/09 07:54:16;;;;;;;3.87;1.87;;;;;;;25.84;48.89;98883.73;1790191;78;21461;-85
2022/08/09 07:56:42;;;;;;;2.15;1.55;;;;;;;26.07;49.01;98883.08;1790236;78;21113;-89
2022/08/09 07:59:08;;;;;;;3.02;1.70;;;;;;;26.26;45.73;98880.91;1768991;78;21062;-87
2022/08/09 08:01:34;;;;;;;3.45;1.52;;;;;;;26.57;45.18;98888.34;1821790;76;21263;-88
2022/08/09 08:04:03;;;;;;;4.72;1.40;;;;;;;26.80;42.28;98887.84;1802049;78;20967;-85
2022/08/09 08:06:30;;;;;;;4.25;1.92;;;;;;;26.92;41.73;98887.70;1771116;78;21055;-89
2022/08/09 08:08:56;;;;;;;5.58;1.52;;;;;;;27.04;40.54;98883.98;1821306;76;21034;-84
2022/08/09 08:11:22;;;;;;;3.05;1.42;;;;;;;27.65;42.19;98886.45;1824646;77;21029;-87
2022/08/09 08:13:49;;;;;;;4.08;1.50;;;;;;;28.16;40.59;98890.27;1821893;78;21258;-84
2022/08/09 08:16:15;;;;;;;3.17;1.40;;;;;;;27.50;37.46;98889.58;1814896;78;21092;-84
2022/08/09 08:18:41;;;;;;;3.72;1.45;;;;;;;27.94;38.91;98883.55;1826527;77;20942;-90
2022/08/09 08:21:07;;;;;;;2.92;1.50;;;;;;;28.53;39.21;98882.84;1761686;79;21115;-84
2022/08/09 08:23:33;;;;;;;5.65;1.55;;;;;;;28.71;35.88;98881.67;1797734;78;20888;-90
2022/08/09 08:25:59;;;;;;;3.90;1.27;;;;;;;28.77;36.34;98884.34;1814901;78;21699;-89
2022/08/09 08:28:25;;;;;;;5.40;1.25;;;;;;;29.33;37.17;98887.59;1821172;78;20906;-90
2022/08/09 08:30:51;;;;;;;4.53;2.02;;;;;;;28.63;35.02;98893.35;1815178;77;21037;-85
2022/08/09 08:33:17;;;;;;;3.52;1.40;;;;;;;28.11;36.45;98888.59;1817487;78;20918;-90
2022/08/09 08:35:43;;;;;;;6.85;1.57;;;;;;;28.26;38.46;98889.02;1791282;78;22385;-84
2022/08/09 08:38:09;;;;;;;6.35;1.65;;;;;;;26.86;39.55;98896.70;1820636;76;21151;-89
2022/08/09 08:40:35;;;;;;;5.53;1.50;;;;;;;27.02;40.04;98896.63;1827376;76;20846;-89
2022/08/09 08:43:02;;;;;;;4.08;1.65;;;;;;;27.24;39.31;98892.50;1805405;77;20903;-84
2022/08/09 08:45:32;;;;;;;2.70;1.57;;;;;;;26.82;39.39;98895.23;1813563;78;21553;-84
2022/08/09 08:47:59;;;;;;;3.92;1.87;;;;;;;26.86;38.87;98897.51;1817968;78;21068;-84
2022/08/09 08:50:25;;;;;;;3.75;1.60;;;;;;;26.41;40.35;98900.94;1818359;77;21440;-84
2022/08/09 08:52:51;;;;;;;3.62;1.50;;;;;;;25.66;41.66;98892.77;1743826;81;20855;-89
2022/08/09 08:55:17;;;;;;;6.28;1.40;;;;;;;25.40;42.57;98895.48;1754318;81;21037;-84
2022/08/09 08:57:43;;;;;;;7.00;1.70;;;;;;;24.52;43.55;98900.70;1756042;79;21168;-83
2022/08/09 09:00:10;;;;;;;1.57;1.22;;;;;;;24.48;43.99;98897.25;1762467;79;21056;-88
2022/08/09 09:02:36;;;;;;;6.30;1.67;;;;;;;26.05;40.83;98891.74;1740644;80;22376;-88
2022/08/09 09:05:03;;;;;;;2.45;1.27;;;;;;;25.97;39.97;98891.35;1762117;79;21052;-89
2022/08/09 09:07:29;;;;;;;5.15;1.52;;;;;;;26.79;40.11;98893.78;1757459;79;21057;-84
2022/08/09 09:09:57;;;;;;;2.52;1.22;;;;;;;25.76;40.08;98902.77;1744235;80;21088;-89
2022/08/09 09:12:28;;;;;;;3.55;1.10;;;;;;;26.11;39.80;98892.28;1757271;79;21022;-84
2022/08/09 09:14:54;;;;;;;4.25;1.10;;;;;;;26.50;38.74;98886.84;1756814;79;21126;-88
2022/08/09 09:17:20;;;;;;;4.25;1.42;;;;;;;26.68;37.75;98901.91;1836013;76;20817;-88
2022/08/09 09:19:46;;;;;;;3.85;1.40;;;;;;;28.25;36.18;98886.62;1833289;76;20875;-85
2022/08/09 09:22:14;;;;;;;3.70;1.55;;;;;;;27.52;36.60;98895.59;1790013;77;21573;-84
2022/08/09 09:24:52;;;;;;;3.92;1.40;;;;;;;29.52;35.23;98888.59;1820375;77;21740;-89
2022/08/09 09:27:20;;;;;;;;;;;;;;;31.47;32.96;98888.07;1800847;78;21735;-85
2022/08/09 09:29:46;;;;;;;4.22;1.27;;;;;;;30.59;31.97;98895.73;1830488;77;20246;-84
2022/08/09 09:32:14;;;;;;;2.92;1.22;;;;;;;30.49;31.41;98895.08;1816573;77;20933;-89
2022/08/09 09:34:41;;;;;;;1.87;0.90;;;;;;;30.43;31.54;98893.88;1775373;78;21013;-90
2022/08/09 09:37:07;;;;;;;4.35;1.20;;;;;;;28.68;33.76;98901.95;1818686;76;21148;-89
2022/08/09 09:39:33;;;;;;;3.85;1.20;;;;;;;26.70;36.49;98905.12;1823272;77;20958;-89
2022/08/09 09:41:59;;;;;;;2.83;1.35;;;;;;;26.64;37.36;98905.18;1819289;76;20911;-90
2022/08/09 09:44:28;;;;;;;5.83;1.10;;;;;;;26.81;37.36;98903.94;1823166;77;21455;-90
2022/08/09 09:47:08;;;;;;;6.05;1.57;;;;;;;28.41;35.89;98899.02;1757913;81;21020;-88
2022/08/09 09:49:35;;;;;;;3.20;1.60;;;;;;;27.61;36.39;98905.89;1756632;80;21049;-90
2022/08/09 09:52:07;;;;;;;6.62;1.77;;;;;;;29.09;34.88;98900.69;1762849;79;21368;-85
2022/08/09 09:54:36;;;;;;;3.92;1.37;;;;;;;28.22;35.31;98904.09;1762059;81;21081;-89
2022/08/09 09:57:17;;;;;;;2.42;1.20;;;;;;;27.50;36.71;98905.69;1726527;82;21147;-89
2022/08/09 09:59:43;;;;;;;4.22;1.55;;;;;;;28.10;35.96;98892.56;1798544;78;21479;-89
2022/08/09 10:02:09;;;;;;;3.77;1.50;;;;;;;29.57;33.87;98886.25;1797936;78;21140;-89
2022/08/09 10:04:35;;;;;;;7.40;2.02;;;;;;;29.69;32.67;98899.91;1789875;78;21116;-89
2022/08/09 10:07:02;;;;;;;6.00;1.50;;;;;;;31.39;31.81;98883.06;1778986;79;20858;-89
2022/08/09 10:09:52;;;;;;;5.08;1.42;;;;;;;31.25;31.68;98887.23;1784247;79;21495;-85
2022/08/09 10:12:31;;;;;;;5.72;1.57;;;;;;;29.86;34.06;98891.47;1759595;79;20989;-87
2022/08/09 10:15:15;;;;;;;2.58;1.30;;;;;;;29.11;34.38;98896.91;1730546;81;22100;-89
2022/08/09 10:17:45;;;;;;;3.70;1.57;;;;;;;28.30;35.61;98893.30;1733247;81;21121;-84
2022/08/09 10:20:24;;;;;;;4.35;1.50;;;;;;;26.28;39.19;98896.63;1726779;81;21086;-85
2022/08/09 10:22:53;;;;;;;3.33;1.42;;;;;;;25.48;41.44;98894.51;1727182;81;21018;-88
2022/08/09 10:25:19;;;;;;;11.73;1.70;;;;;;;25.13;42.84;98893.58;1750491;81;21080;-88
2022/08/09 10:27:45;;;;;;;8.50;1.80;;;;;;;24.05;46.39;98902.61;1732648;81;20955;-85
2022/08/09 10:30:12;;;;;;;5.92;2.20;;;;;;;23.74;48.02;98903.19;1731401;81;21178;-88
2022/08/09 10:32:37;;;;;;;2.95;1.80;;;;;;;23.98;46.29;98896.84;1730872;81;21461;-84
2022/08/09 10:35:04;;;;;;;4.65;2.30;;;;;;;23.28;49.62;98899.08;1735667;81;21621;-84
2022/08/09 10:37:30;;;;;;;4.62;2.05;;;;;;;23.28;49.62;98899.08;1714908;81;20998;-88
2022/08/09 10:39:57;;;;;;;5.53;2.47;;;;;;;23.35;48.87;98892.41;1721169;82;20922;-85
2022/08/09 10:42:23;;;;;;;3.45;1.90;;;;;;;23.42;48.79;98896.00;1789416;78;21551;-89
2022/08/09 10:45:00;;;;;;;4.70;1.95;;;;;;;23.54;49.11;98893.23;1787720;78;21634;-84
2022/08/09 10:47:49;;;;;;;4.42;1.65;;;;;;;23.44;47.92;98893.69;1744610;80;21109;-88
2022/08/09 10:51:08;;;;;;;8.00;1.98;;;;;;;23.87;46.73;98895.94;1737871;81;21074;-84
2022/08/09 10:54:09;;;;;;;5.90;1.55;;;;;;;23.80;45.46;98895.70;1728936;81;21064;-88
2022/08/09 10:56:36;;;;;;;4.65;2.05;;;;;;;23.95;45.99;98892.02;1725536;80;21078;-88
2022/08/09 10:59:27;;;;;;;2.80;2.00;;;;;;;24.19;45.27;98893.38;1760439;79;21001;-89
2022/08/09 11:01:53;;;;;;;1.85;1.20;;;;;;;24.20;44.40;98883.34;1820854;76;21052;-89
2022/08/09 11:04:22;;;;;;;3.17;1.70;;;;;;;23.94;44.51;98882.91;1834618;76;21144;-85
2022/08/09 11:07:00;;;;;;;5.12;1.50;;;;;;;24.34;43.69;98884.94;1793445;78;25482;-85
2022/08/09 11:09:47;;;;;;;2.27;1.27;;;;;;;24.92;43.33;98882.08;1792195;78;21115;-89
2022/08/09 11:12:18;;;;;;;4.50;1.62;;;;;;;25.39;42.73;98885.55;1827459;78;21049;-85
2022/08/09 11:15:01;;;;;;;3.85;1.80;;;;;;;25.95;42.14;98879.81;1751366;81;21431;-89
2022/08/09 11:17:34;;;;;;;4.28;1.70;;;;;;;26.53;41.08;98879.95;1751775;81;21037;-85
2022/08/09 11:20:11;;;;;;;2.27;1.40;;;;;;;26.51;40.85;98881.49;1757840;80;21077;-85
2022/08/09 11:22:53;;;;;;;4.03;1.20;;;;;;;26.84;38.53;98880.39;1767885;79;21252;-88
2022/08/09 11:25:30;;;;;;;3.77;1.80;;;;;;;26.52;39.44;98878.34;1763902;79;21640;-89
2022/08/09 11:27:57;;;;;;;6.50;1.62;;;;;;;25.99;40.61;98879.33;1754043;81;21007;-85
2022/08/09 11:30:31;;;;;;;5.10;1.60;;;;;;;25.73;40.70;98879.09;1755279;79;21124;-85
2022/08/09 11:33:18;;;;;;;1.72;1.10;;;;;;;25.24;41.18;98874.66;1742226;79;21487;-89
2022/08/09 11:35:59;;;;;;;3.10;1.57;;;;;;;25.42;41.46;98872.34;1819742;77;21072;-89
2022/08/09 11:38:30;;;;;;;3.70;1.67;;;;;;;24.54;42.56;98874.28;1845297;76;21124;-89